createdAt,value
2023-01-25T10:40:06.055Z,2.21
2023-01-25T10:41:02.583Z,2.28
2023-01-25T17:44:42.273Z,2.21
2023-01-25T17:45:21.053Z,2.11
2023-01-25T17:47:26.431Z,2.18
2023-01-25T17:48:28.610Z,2.12
2023-01-25T17:49:33.353Z,2.18
2023-01-25T17:50:32.243Z,2.17
2023-01-25T17:51:28.846Z,2.12
2023-01-25T17:53:29.188Z,2.14
2023-01-25T17:54:28.650Z,2.11
2023-01-25T17:55:19.845Z,2.14
2023-01-25T17:56:19.762Z,2.06
2023-01-25T17:57:19.689Z,2.00
2023-01-25T17:58:19.631Z,2.03
2023-01-25T17:59:19.578Z,1.97
2023-01-25T18:00:19.482Z,1.99
2023-01-25T18:01:19.484Z,2.01
2023-01-25T18:02:19.358Z,1.95
2023-01-25T18:03:19.264Z,2.03
2023-01-25T18:04:19.199Z,1.92
2023-01-25T18:05:19.116Z,1.95
2023-01-25T18:06:19.058Z,1.99
2023-01-25T18:07:19.001Z,1.97
2023-01-25T18:08:18.908Z,1.97
2023-01-25T18:09:18.838Z,2.00
2023-01-25T18:10:18.768Z,2.03
2023-01-25T18:11:18.746Z,2.06
2023-01-25T18:12:20.537Z,1.91
2023-01-25T18:13:18.556Z,1.97
2023-01-25T18:14:18.490Z,1.92
2023-01-25T18:15:18.438Z,2.03
2023-01-25T18:16:18.459Z,2.04
2023-01-25T18:17:18.285Z,2.00
2023-01-25T18:18:18.202Z,2.01
2023-01-25T18:19:18.158Z,2.01
2023-01-25T18:20:18.063Z,2.11
2023-01-25T18:21:18.012Z,2.12
2023-01-25T18:22:17.922Z,2.06
2023-01-25T18:23:17.848Z,2.10
2023-01-25T18:24:17.822Z,2.15
2023-01-25T18:25:17.711Z,2.22
2023-01-25T18:26:17.648Z,2.12
2023-01-25T18:27:17.564Z,2.07
2023-01-25T18:28:17.503Z,2.11
2023-01-25T18:29:17.439Z,2.07
2023-01-25T18:30:17.356Z,2.01
2023-01-25T18:31:17.420Z,2.03
2023-01-25T18:32:17.215Z,1.93
2023-01-25T18:33:17.140Z,2.01
2023-01-25T18:34:17.087Z,2.10
2023-01-25T18:35:17.001Z,2.00
2023-01-25T18:36:16.929Z,2.00
2023-01-25T18:37:16.863Z,2.11
2023-01-25T18:38:16.791Z,2.19
2023-01-25T18:39:16.731Z,2.14
2023-01-25T18:40:16.649Z,2.14
2023-01-25T18:41:16.586Z,2.11
2023-01-25T18:42:16.510Z,2.10
2023-01-25T18:43:16.441Z,2.11
2023-01-25T18:44:16.368Z,2.10
2023-01-25T18:45:16.308Z,2.12
2023-01-25T18:46:16.260Z,1.97
2023-01-25T18:47:16.165Z,1.97
2023-01-25T18:48:16.085Z,1.92
2023-01-25T18:49:16.034Z,1.89
2023-01-25T18:50:15.944Z,1.93
2023-01-25T18:51:15.881Z,1.92
2023-01-25T18:52:15.805Z,1.89
2023-01-25T18:53:15.749Z,1.91
2023-01-25T18:54:15.681Z,1.95
2023-01-25T18:55:15.589Z,1.89
2023-01-25T18:56:15.522Z,1.95
2023-01-25T18:57:15.456Z,1.84
2023-01-25T18:58:15.387Z,1.81
2023-01-25T18:59:15.303Z,1.78
2023-01-25T19:00:15.262Z,1.84
2023-01-25T19:01:15.194Z,1.80
2023-01-25T19:02:15.094Z,1.78
2023-01-25T19:03:15.022Z,1.84
2023-01-25T19:04:14.956Z,1.77
2023-01-25T19:05:14.881Z,1.81
2023-01-25T19:06:14.838Z,1.81
2023-01-25T19:07:14.793Z,1.91
2023-01-25T19:08:14.667Z,1.89
2023-01-25T19:09:14.602Z,1.84
2023-01-25T19:10:14.451Z,1.80
2023-01-25T19:11:14.456Z,1.80
2023-01-25T19:12:14.386Z,1.85
2023-01-25T19:13:14.311Z,1.93
2023-01-25T19:14:14.152Z,1.89
2023-01-25T19:15:14.180Z,1.80
2023-01-25T19:16:14.129Z,1.81
2023-01-25T19:17:14.038Z,1.78
2023-01-25T19:18:13.965Z,1.73
2023-01-25T19:19:13.942Z,1.77
2023-01-25T19:20:13.822Z,1.77
2023-01-25T19:21:13.752Z,1.77
2023-01-25T19:22:13.679Z,1.77
2023-01-25T19:23:13.604Z,1.75
2023-01-25T19:24:13.582Z,1.81
2023-01-25T19:25:13.467Z,1.92
2023-01-25T19:26:13.394Z,1.97
2023-01-25T19:27:13.322Z,2.01
2023-01-25T19:28:13.253Z,2.00
2023-01-25T19:29:13.214Z,1.80
2023-01-25T19:30:13.111Z,1.84
2023-01-25T21:36:14.202Z,1.60
2023-01-25T21:37:12.751Z,1.57
